Time;durP1;ratioP1;P1;durP2;ratioP2;P2;SDS_P1;SDS_P2;PMS_P1;PMS_P2;Temp;Humidity;BMP_temperature;BMP_pressure;BME280_temperature;BME280_humidity;BME280_pressure;Samples;Min_cycle;Max_cycle;Signal;HPM_P1;HPM_P2
2023/03/08 00:01:43;;;;;;;3.97;1.20;;;-0.10;99.90;;;;;;5091168;28;20036;-61
2023/03/08 00:04:09;;;;;;;4.03;0.95;;;-0.10;99.90;;;;;;5090659;28;20028;-61
2023/03/08 00:06:35;;;;;;;5.60;1.23;;;-0.10;99.90;;;;;;5090323;28;20050;-61
2023/03/08 00:09:01;;;;;;;4.38;0.90;;;-0.10;99.90;;;;;;5092001;28;20373;-61
2023/03/08 00:11:28;;;;;;;3.00;1.20;;;-0.10;99.90;;;;;;5092347;28;20036;-61
2023/03/08 00:13:54;;;;;;;4.35;1.20;;;-0.10;99.90;;;;;;5090235;28;20072;-61
2023/03/08 00:16:20;;;;;;;4.40;1.23;;;-0.10;99.90;;;;;;5090154;28;20040;-61
2023/03/08 00:18:46;;;;;;;5.82;1.13;;;-0.10;99.90;;;;;;5092449;28;20434;-61
2023/03/08 00:21:17;;;;;;;4.00;1.10;;;-0.20;99.90;;;;;;5091096;28;20415;-61
2023/03/08 00:23:43;;;;;;;2.45;0.93;;;-0.20;99.90;;;;;;5074014;28;20036;-61
2023/03/08 00:26:10;;;;;;;4.03;1.20;;;-0.20;99.90;;;;;;5091571;28;20540;-61
2023/03/08 00:28:36;;;;;;;6.43;1.52;;;-0.10;99.90;;;;;;5090076;28;20040;-61
2023/03/08 00:31:10;;;;;;;4.68;1.30;;;-0.10;99.90;;;;;;5091984;28;20047;-61
2023/03/08 00:33:37;;;;;;;5.63;1.45;;;0.00;99.90;;;;;;5091521;28;20036;-61
2023/03/08 00:36:04;;;;;;;3.97;1.48;;;0.00;99.90;;;;;;5090410;28;20040;-61
2023/03/08 00:38:32;;;;;;;3.55;1.02;;;0.00;99.90;;;;;;5090796;28;20040;-61
2023/03/08 00:40:59;;;;;;;3.72;1.20;;;0.00;99.90;;;;;;5089764;28;20047;-61
2023/03/08 00:43:25;;;;;;;3.92;1.38;;;0.00;99.90;;;;;;5092156;28;20086;-61
2023/03/08 00:45:50;;;;;;;11.45;1.13;;;0.00;99.90;;;;;;5094782;28;20052;-61
2023/03/08 00:48:16;;;;;;;3.88;1.05;;;0.00;99.90;;;;;;5094441;28;20044;-61
2023/03/08 00:50:42;;;;;;;4.72;0.93;;;0.00;99.90;;;;;;5094728;28;20036;-61
2023/03/08 00:53:08;;;;;;;2.70;0.70;;;0.00;99.90;;;;;;5094111;28;20071;-61
2023/03/08 00:55:34;;;;;;;1.63;0.75;;;-0.10;99.90;;;;;;5094833;28;20133;-61
2023/03/08 00:57:59;;;;;;;1.48;0.55;;;-0.10;99.90;;;;;;5077386;28;20040;-61
2023/03/08 01:00:25;;;;;;;0.82;0.40;;;-0.10;99.90;;;;;;5095210;28;20051;-61
2023/03/08 01:02:51;;;;;;;1.40;0.50;;;-0.10;99.90;;;;;;5095248;28;20032;-61
2023/03/08 01:05:16;;;;;;;1.35;0.52;;;-0.20;99.90;;;;;;5093707;28;20044;-61
2023/03/08 01:07:42;;;;;;;2.90;0.60;;;-0.20;99.90;;;;;;5095443;28;20032;-61
2023/03/08 01:10:08;;;;;;;2.00;0.55;;;-0.20;99.90;;;;;;5093917;28;20036;-61
2023/03/08 01:12:35;;;;;;;1.40;0.57;;;-0.20;99.90;;;;;;5094334;28;20048;-61
2023/03/08 01:15:01;;;;;;;0.82;0.30;;;-0.20;99.90;;;;;;5076747;28;20070;-61
2023/03/08 01:17:27;;;;;;;2.20;0.90;;;-0.20;99.90;;;;;;5093027;28;20119;-61
2023/03/08 01:19:53;;;;;;;3.53;0.73;;;-0.20;99.90;;;;;;5094415;28;20127;-61
2023/03/08 01:22:18;;;;;;;2.25;0.80;;;-0.10;99.90;;;;;;5093245;28;20546;-61
2023/03/08 01:24:48;;;;;;;3.55;0.90;;;-0.10;99.90;;;;;;5093147;28;20047;-61
2023/03/08 01:27:15;;;;;;;2.90;1.05;;;-0.10;99.90;;;;;;5094496;28;20044;-61
2023/03/08 01:29:41;;;;;;;2.90;0.60;;;-0.10;99.90;;;;;;5095273;28;20115;-61
2023/03/08 01:32:08;;;;;;;2.47;0.73;;;0.00;99.90;;;;;;5093620;28;20055;-61
2023/03/08 01:34:35;;;;;;;3.25;1.00;;;0.00;99.90;;;;;;5095201;28;20396;-61
2023/03/08 01:37:01;;;;;;;4.72;1.48;;;0.00;99.90;;;;;;5092568;28;20058;-61
2023/03/08 01:39:27;;;;;;;3.17;0.90;;;0.00;99.90;;;;;;5094393;28;20547;-61
2023/03/08 01:41:52;;;;;;;3.08;0.93;;;0.00;99.90;;;;;;5094782;28;20044;-61
2023/03/08 01:44:21;;;;;;;2.60;0.80;;;0.00;99.90;;;;;;5092118;28;20096;-61
2023/03/08 01:46:47;;;;;;;5.22;1.92;;;0.00;99.90;;;;;;5094905;28;20400;-61
2023/03/08 01:49:16;;;;;;;4.07;0.65;;;0.00;99.90;;;;;;5076011;28;20040;-61
2023/03/08 01:51:51;;;;;;;2.45;0.82;;;0.00;99.90;;;;;;5092728;28;20039;-61
2023/03/08 01:54:25;;;;;;;2.58;0.70;;;0.00;99.90;;;;;;5091929;28;20086;-61
2023/03/08 01:56:53;;;;;;;2.23;0.70;;;0.00;99.90;;;;;;5093347;28;20040;-61
2023/03/08 01:59:21;;;;;;;7.07;2.30;;;-0.10;99.90;;;;;;5092142;28;20067;-61
2023/03/08 02:01:48;;;;;;;4.63;0.80;;;-0.10;99.90;;;;;;5093309;28;20500;-61
2023/03/08 02:04:14;;;;;;;2.78;1.40;;;-0.10;99.90;;;;;;5092535;28;20166;-61
2023/03/08 02:06:41;;;;;;;3.42;0.70;;;-0.10;99.90;;;;;;5093839;28;20044;-61
2023/03/08 02:09:07;;;;;;;2.25;0.90;;;-0.10;99.90;;;;;;5075574;28;20128;-61
2023/03/08 02:11:35;;;;;;;3.10;0.73;;;-0.10;99.90;;;;;;5094382;28;20067;-61
2023/03/08 02:14:01;;;;;;;2.85;1.17;;;-0.10;99.90;;;;;;5075232;28;20394;-61
2023/03/08 02:16:27;;;;;;;2.38;0.52;;;-0.10;99.90;;;;;;5093829;28;20040;-61
2023/03/08 02:18:58;;;;;;;3.58;0.82;;;-0.10;99.90;;;;;;5092838;28;20036;-61
2023/03/08 02:21:26;;;;;;;1.35;0.57;;;-0.10;99.90;;;;;;5091452;28;20043;-61
2023/03/08 02:23:53;;;;;;;3.30;0.80;;;-0.10;99.90;;;;;;5092961;28;20480;-61
2023/03/08 02:26:19;;;;;;;3.70;0.77;;;-0.10;99.90;;;;;;5092735;28;20112;-61
2023/03/08 02:28:44;;;;;;;7.10;1.10;;;-0.10;99.90;;;;;;5092875;28;20505;-61
2023/03/08 02:31:11;;;;;;;1.35;0.32;;;-0.20;99.90;;;;;;5092166;28;20476;-61
2023/03/08 02:33:37;;;;;;;2.15;0.60;;;-0.20;99.90;;;;;;5093048;28;20067;-61
2023/03/08 02:36:04;;;;;;;2.85;0.60;;;-0.20;99.90;;;;;;5092379;28;20480;-61
2023/03/08 02:38:30;;;;;;;3.72;0.52;;;-0.20;99.90;;;;;;5075595;28;20039;-61
2023/03/08 02:40:56;;;;;;;2.45;0.50;;;-0.20;99.90;;;;;;5091446;28;20378;-61
2023/03/08 02:43:22;;;;;;;2.08;0.50;;;-0.20;99.90;;;;;;5075177;28;20036;-61
2023/03/08 02:45:48;;;;;;;1.58;0.40;;;-0.20;99.90;;;;;;5092417;28;20443;-61
2023/03/08 02:48:14;;;;;;;5.13;0.70;;;-0.30;99.90;;;;;;5074013;28;20074;-61
2023/03/08 02:50:40;;;;;;;8.70;1.25;;;-0.30;99.90;;;;;;5092275;28;20102;-61
2023/03/08 02:53:06;;;;;;;2.58;0.52;;;-0.30;99.90;;;;;;5093079;28;20044;-61
2023/03/08 02:55:36;;;;;;;3.83;0.60;;;-0.40;99.90;;;;;;5091697;28;20040;-61
2023/03/08 02:58:06;;;;;;;2.17;0.52;;;-0.40;99.90;;;;;;5091744;28;20032;-61
2023/03/08 03:00:32;;;;;;;0.95;0.17;;;-0.40;99.90;;;;;;5092200;28;20024;-61
2023/03/08 03:02:58;;;;;;;0.82;0.38;;;-0.40;99.90;;;;;;5092791;28;20510;-61
2023/03/08 03:05:23;;;;;;;1.45;0.50;;;-0.40;99.90;;;;;;5091216;28;20070;-61
2023/03/08 03:07:49;;;;;;;3.00;0.40;;;-0.40;99.90;;;;;;5093263;28;20381;-61
2023/03/08 03:10:15;;;;;;;1.25;0.40;;;-0.40;99.90;;;;;;5090616;28;20043;-61
2023/03/08 03:12:41;;;;;;;1.60;0.20;;;-0.40;99.90;;;;;;5093116;28;20052;-61
2023/03/08 03:15:08;;;;;;;1.98;0.50;;;-0.40;99.90;;;;;;5091188;28;20040;-61
2023/03/08 03:17:35;;;;;;;2.40;0.32;;;-0.40;99.90;;;;;;5090934;28;20039;-61
2023/03/08 03:20:04;;;;;;;0.85;0.30;;;-0.40;99.90;;;;;;5092756;28;20412;-61
2023/03/08 03:22:29;;;;;;;0.82;0.30;;;-0.40;99.90;;;;;;5092274;28;20092;-61
2023/03/08 03:24:55;;;;;;;1.30;0.30;;;-0.40;99.90;;;;;;5092880;28;20511;-61
2023/03/08 03:27:21;;;;;;;3.65;0.50;;;-0.40;99.90;;;;;;5091427;28;20048;-61
2023/03/08 03:29:46;;;;;;;1.75;0.47;;;-0.40;99.90;;;;;;5091926;28;20476;-61
2023/03/08 03:32:12;;;;;;;1.33;0.35;;;-0.50;99.90;;;;;;5091208;28;20058;-61
2023/03/08 03:34:38;;;;;;;1.65;0.52;;;-0.40;99.90;;;;;;5092912;28;20043;-61
2023/03/08 03:37:03;;;;;;;1.73;0.65;;;-0.50;99.90;;;;;;5090262;28;20040;-61
2023/03/08 03:39:32;;;;;;;7.63;0.70;;;-0.50;99.90;;;;;;5091287;28;20047;-61
2023/03/08 03:41:59;;;;;;;2.05;0.90;;;-0.50;99.90;;;;;;5092573;28;20047;-61
2023/03/08 03:44:27;;;;;;;1.92;0.68;;;-0.50;99.90;;;;;;5090139;28;20047;-61
2023/03/08 03:46:53;;;;;;;0.98;0.30;;;-0.50;99.90;;;;;;5091371;28;20047;-61
2023/03/08 03:49:18;;;;;;;0.73;0.40;;;-0.50;99.90;;;;;;5092006;28;20039;-61
2023/03/08 03:51:44;;;;;;;1.63;0.40;;;-0.60;99.90;;;;;;5090623;28;20035;-61
2023/03/08 03:54:09;;;;;;;3.33;0.40;;;-0.50;99.90;;;;;;5074215;28;20040;-62
2023/03/08 03:56:35;;;;;;;3.45;1.60;;;-0.50;99.90;;;;;;5074550;28;20083;-61
2023/03/08 03:59:01;;;;;;;2.65;0.70;;;-0.50;99.90;;;;;;5091170;28;20028;-61
2023/03/08 04:01:28;;;;;;;2.75;0.80;;;-0.60;99.90;;;;;;5090842;28;20074;-61
2023/03/08 04:03:55;;;;;;;2.80;0.90;;;-0.50;99.90;;;;;;5091384;28;20080;-62
2023/03/08 04:06:26;;;;;;;1.83;0.50;;;-0.60;99.90;;;;;;5090973;28;20119;-61
2023/03/08 04:08:56;;;;;;;3.55;0.70;;;-0.60;99.90;;;;;;5074546;28;20362;-61
2023/03/08 04:11:26;;;;;;;3.45;0.60;;;-0.60;99.90;;;;;;5090383;28;20489;-62
2023/03/08 04:13:52;;;;;;;2.92;0.60;;;-0.60;99.90;;;;;;5090200;28;20040;-61
2023/03/08 04:16:26;;;;;;;1.48;0.57;;;-0.60;99.90;;;;;;5091833;28;20111;-61
2023/03/08 04:18:57;;;;;;;1.07;0.43;;;-0.60;99.90;;;;;;5093080;28;20040;-62
2023/03/08 04:21:24;;;;;;;3.33;1.00;;;-0.60;99.90;;;;;;5094425;28;20068;-61
2023/03/08 04:23:50;;;;;;;2.00;0.60;;;-0.60;99.90;;;;;;5094972;28;20047;-61
2023/03/08 04:26:16;;;;;;;1.77;0.60;;;-0.60;99.90;;;;;;5093636;28;20063;-61
2023/03/08 04:28:42;;;;;;;2.92;0.70;;;-0.60;99.90;;;;;;5078478;28;20401;-61
2023/03/08 04:31:15;;;;;;;1.75;0.65;;;-0.60;99.90;;;;;;5094515;28;20429;-61
2023/03/08 04:33:40;;;;;;;0.85;0.40;;;-0.60;99.90;;;;;;5095454;28;20047;-61
2023/03/08 04:36:06;;;;;;;3.95;0.80;;;-0.60;99.90;;;;;;5095462;28;20032;-61
2023/03/08 04:38:32;;;;;;;5.82;0.85;;;-0.60;99.90;;;;;;5094701;28;20063;-61
2023/03/08 04:41:01;;;;;;;4.22;0.80;;;-0.60;99.90;;;;;;5093795;28;20083;-61
2023/03/08 04:43:27;;;;;;;5.40;1.00;;;-0.60;99.90;;;;;;5077667;28;20044;-61
2023/03/08 04:45:53;;;;;;;2.20;0.70;;;-0.60;99.90;;;;;;5077678;28;20051;-61
2023/03/08 04:48:19;;;;;;;4.13;1.10;;;-0.60;99.90;;;;;;5093507;28;20039;-61
2023/03/08 04:50:54;;;;;;;4.75;1.00;;;-0.60;99.90;;;;;;5095806;28;20040;-61
2023/03/08 04:53:20;;;;;;;;;;;-0.60;99.90;;;;;;5094222;28;20066;-61
2023/03/08 04:55:46;;;;;;;4.35;1.40;;;-0.60;99.90;;;;;;5095170;28;20367;-61
2023/03/08 04:58:12;;;;;;;5.35;1.75;;;-0.60;99.90;;;;;;5077355;28;20063;-61
2023/03/08 05:00:37;;;;;;;5.30;1.55;;;-0.60;99.90;;;;;;5077818;28;20040;-61
2023/03/08 05:03:03;;;;;;;5.78;1.98;;;-0.60;99.90;;;;;;5093299;28;20078;-61
2023/03/08 05:05:29;;;;;;;5.10;1.73;;;-0.60;99.90;;;;;;5095057;28;20040;-61
2023/03/08 05:07:54;;;;;;;3.05;1.08;;;-0.60;99.90;;;;;;5093491;28;20101;-61
2023/03/08 05:10:20;;;;;;;5.15;1.55;;;-0.60;99.90;;;;;;5095086;28;20133;-61
2023/03/08 05:12:45;;;;;;;4.53;1.48;;;-0.50;99.90;;;;;;5095581;28;20036;-61
2023/03/08 05:15:11;;;;;;;5.40;1.73;;;-0.60;99.90;;;;;;5093977;28;20613;-61
2023/03/08 05:17:37;;;;;;;3.58;1.52;;;-0.60;99.90;;;;;;5095175;28;20040;-61
2023/03/08 05:20:03;;;;;;;6.32;2.20;;;-0.60;99.90;;;;;;5093974;28;20044;-61
2023/03/08 05:22:28;;;;;;;6.93;1.98;;;-0.60;99.90;;;;;;5094087;28;20040;-61
2023/03/08 05:24:54;;;;;;;4.78;2.13;;;-0.60;99.90;;;;;;5095336;28;20442;-61
2023/03/08 05:27:20;;;;;;;3.38;1.52;;;-0.60;99.90;;;;;;5093271;28;20055;-61
2023/03/08 05:29:45;;;;;;;4.50;1.65;;;-0.70;99.90;;;;;;5092865;28;20036;-61
2023/03/08 05:32:12;;;;;;;6.45;1.77;;;-0.70;99.90;;;;;;5093575;28;20523;-61
2023/03/08 05:34:38;;;;;;;4.97;1.60;;;-0.60;99.90;;;;;;5093786;28;20036;-61
2023/03/08 05:37:03;;;;;;;3.60;1.23;;;-0.70;99.90;;;;;;5092581;28;20040;-61
2023/03/08 05:39:29;;;;;;;4.63;1.30;;;-0.60;99.90;;;;;;5093308;28;20524;-61
2023/03/08 05:41:55;;;;;;;3.72;1.27;;;-0.60;99.90;;;;;;5093453;28;20059;-61
2023/03/08 05:44:21;;;;;;;4.90;1.42;;;-0.70;99.90;;;;;;5075387;28;20044;-61
2023/03/08 05:46:51;;;;;;;4.15;1.20;;;-0.60;99.90;;;;;;5093855;28;20483;-61
2023/03/08 05:49:16;;;;;;;3.42;1.50;;;-0.60;99.90;;;;;;5075966;28;20518;-61
2023/03/08 05:51:42;;;;;;;2.83;1.10;;;-0.60;99.90;;;;;;5092598;28;20039;-61
2023/03/08 05:54:08;;;;;;;3.50;1.25;;;-0.60;99.90;;;;;;5094299;28;20079;-61
2023/03/08 05:56:34;;;;;;;4.05;1.20;;;-0.60;99.90;;;;;;5093185;28;20109;-61
2023/03/08 05:59:00;;;;;;;7.03;1.52;;;-0.60;99.90;;;;;;5093919;28;20121;-61
2023/03/08 06:01:26;;;;;;;5.05;1.20;;;-0.60;99.90;;;;;;5092899;28;20043;-61
2023/03/08 06:03:55;;;;;;;5.45;1.20;;;-0.60;99.90;;;;;;5093349;28;20477;-61
2023/03/08 06:06:24;;;;;;;3.78;1.30;;;-0.50;99.90;;;;;;5093145;28;20086;-62
2023/03/08 06:08:51;;;;;;;4.32;1.73;;;-0.50;99.90;;;;;;5094424;28;20047;-61
2023/03/08 06:11:17;;;;;;;4.32;1.70;;;-0.50;99.90;;;;;;5091704;28;20048;-62
2023/03/08 06:13:43;;;;;;;6.78;1.92;;;-0.50;99.90;;;;;;5093024;28;20040;-61
2023/03/08 06:16:10;;;;;;;4.45;1.80;;;-0.50;99.90;;;;;;5075516;28;20040;-61
2023/03/08 06:18:38;;;;;;;4.88;1.70;;;-0.50;99.90;;;;;;5093302;28;20047;-61
2023/03/08 06:21:10;;;;;;;4.07;1.30;;;-0.50;99.90;;;;;;5092424;28;20039;-61
2023/03/08 06:23:35;;;;;;;5.32;1.38;;;-0.50;99.90;;;;;;5094303;28;20378;-61
2023/03/08 06:26:03;;;;;;;4.97;1.40;;;-0.50;99.90;;;;;;5090558;28;20055;-62
2023/03/08 06:28:28;;;;;;;3.55;1.40;;;-0.50;99.90;;;;;;5092824;28;20041;-61
2023/03/08 06:30:55;;;;;;;5.32;1.77;;;-0.60;99.90;;;;;;5072376;28;20374;-61
2023/03/08 06:33:23;;;;;;;4.75;1.60;;;-0.60;99.90;;;;;;5091630;28;20044;-61
2023/03/08 06:36:10;;;;;;;5.55;2.72;;;-0.50;99.90;;;;;;5093874;28;20043;-61
2023/03/08 06:38:38;;;;;;;3.75;1.40;;;-0.50;99.90;;;;;;5093259;28;20378;-61
2023/03/08 06:41:05;;;;;;;4.82;1.73;;;-0.50;99.90;;;;;;5091962;28;20132;-61
2023/03/08 06:43:31;;;;;;;4.25;1.75;;;-0.50;99.90;;;;;;5092390;28;20042;-61
2023/03/08 06:45:56;;;;;;;5.15;1.60;;;-0.50;99.90;;;;;;5075471;28;20043;-61
2023/03/08 06:48:22;;;;;;;4.00;1.73;;;-0.50;99.90;;;;;;5102580;28;20035;-61
2023/03/08 06:50:48;;;;;;;8.35;3.00;;;-0.50;99.90;;;;;;5075948;28;20398;-61
2023/03/08 06:53:14;;;;;;;7.30;3.92;;;-0.50;99.90;;;;;;5093761;28;20040;-62
2023/03/08 06:55:40;;;;;;;10.50;3.97;;;-0.40;99.90;;;;;;5094056;28;20079;-62
2023/03/08 06:58:07;;;;;;;6.20;2.67;;;-0.40;99.90;;;;;;5091686;28;20040;-61
2023/03/08 07:00:33;;;;;;;7.63;2.58;;;-0.40;99.90;;;;;;5092840;28;20062;-62
2023/03/08 07:02:59;;;;;;;8.55;2.70;;;-0.40;99.90;;;;;;5092258;28;20587;-62
2023/03/08 07:05:25;;;;;;;5.55;2.75;;;-0.40;99.90;;;;;;5092772;28;20151;-62
2023/03/08 07:07:51;;;;;;;5.70;2.55;;;-0.30;99.90;;;;;;5074673;28;20036;-62
2023/03/08 07:10:19;;;;;;;5.07;2.70;;;-0.30;99.90;;;;;;5092760;28;20495;-62
2023/03/08 07:12:47;;;;;;;7.15;3.22;;;-0.20;99.90;;;;;;5091878;28;20116;-61
2023/03/08 07:15:18;;;;;;;5.05;2.28;;;-0.20;99.90;;;;;;5091945;28;20035;-61
2023/03/08 07:17:45;;;;;;;6.40;2.78;;;-0.10;99.90;;;;;;5093326;28;20086;-61
2023/03/08 07:20:12;;;;;;;6.75;3.28;;;-0.10;99.90;;;;;;5074683;28;20050;-62
2023/03/08 07:22:40;;;;;;;6.72;3.72;;;0.00;99.90;;;;;;5074051;28;20123;-61
2023/03/08 07:25:07;;;;;;;6.35;2.30;;;0.00;99.90;;;;;;5091017;28;20209;-61
2023/03/08 07:27:33;;;;;;;5.68;2.35;;;0.00;99.90;;;;;;5091409;28;20547;-61
2023/03/08 07:29:59;;;;;;;5.72;1.63;;;0.00;99.90;;;;;;5090984;28;20146;-62
2023/03/08 07:32:27;;;;;;;5.95;1.65;;;0.00;99.90;;;;;;5088768;28;20036;-61
2023/03/08 07:34:56;;;;;;;4.63;1.95;;;0.10;99.90;;;;;;5083335;28;20052;-61
2023/03/08 07:37:23;;;;;;;7.63;2.17;;;0.10;99.90;;;;;;5070684;28;20503;-61
2023/03/08 07:39:49;;;;;;;5.85;1.67;;;0.20;99.90;;;;;;5071970;28;20485;-61
2023/03/08 07:42:15;;;;;;;4.68;1.70;;;0.30;99.90;;;;;;5089439;28;20663;-61
2023/03/08 07:44:41;;;;;;;6.75;1.88;;;0.40;99.90;;;;;;5088146;28;20122;-61
2023/03/08 07:47:07;;;;;;;5.35;2.03;;;0.40;99.90;;;;;;5088575;28;20079;-61
2023/03/08 07:49:33;;;;;;;7.45;2.47;;;0.40;99.90;;;;;;5089414;28;20035;-61
2023/03/08 07:51:58;;;;;;;8.48;3.10;;;0.50;99.90;;;;;;5088265;28;20043;-61
2023/03/08 07:54:24;;;;;;;9.20;4.18;;;0.50;99.90;;;;;;5089048;28;20567;-61
2023/03/08 07:56:54;;;;;;;10.18;4.38;;;0.60;99.90;;;;;;5071292;28;20048;-61
2023/03/08 07:59:21;;;;;;;9.82;4.38;;;0.60;99.90;;;;;;5087978;28;21064;-61
2023/03/08 08:01:47;;;;;;;12.77;4.90;;;0.70;99.90;;;;;;5087273;28;20040;-61
2023/03/08 08:04:12;;;;;;;12.38;5.57;;;0.70;99.90;;;;;;5087351;28;20104;-61
2023/03/08 08:06:39;;;;;;;10.32;5.05;;;0.80;99.90;;;;;;5073706;28;20380;-61
2023/03/08 08:09:06;;;;;;;9.95;4.50;;;0.80;99.90;;;;;;5084634;28;20048;-61
2023/03/08 08:11:33;;;;;;;10.93;3.72;;;0.90;99.90;;;;;;5069011;28;20051;-61
2023/03/08 08:13:59;;;;;;;6.60;3.05;;;0.90;99.90;;;;;;5070542;28;20766;-61
2023/03/08 08:16:24;;;;;;;6.57;2.28;;;1.00;99.90;;;;;;5069329;28;20036;-61
2023/03/08 08:18:51;;;;;;;4.45;1.85;;;1.00;99.90;;;;;;5077216;28;20040;-61
2023/03/08 08:21:17;;;;;;;5.63;1.90;;;1.00;99.90;;;;;;5064887;28;20365;-61
2023/03/08 08:23:43;;;;;;;8.68;2.33;;;1.10;99.90;;;;;;5086413;28;20036;-61
2023/03/08 08:26:13;;;;;;;6.07;2.30;;;1.20;99.90;;;;;;5071612;28;20040;-61
2023/03/08 08:28:40;;;;;;;11.18;3.60;;;1.20;99.90;;;;;;5091367;28;20036;-61
2023/03/08 08:31:09;;;;;;;4.85;1.80;;;1.20;99.90;;;;;;5069492;28;20126;-61
2023/03/08 08:33:35;;;;;;;4.72;1.80;;;1.30;99.90;;;;;;5088537;28;20441;-61
2023/03/08 08:36:04;;;;;;;3.42;1.40;;;1.30;99.90;;;;;;5087518;28;20048;-61
2023/03/08 08:38:30;;;;;;;5.78;1.90;;;1.40;99.90;;;;;;5069199;28;20037;-62
2023/03/08 08:41:00;;;;;;;9.00;2.00;;;1.40;99.90;;;;;;5089885;28;20085;-62
2023/03/08 08:43:27;;;;;;;7.43;2.58;;;1.50;99.90;;;;;;5070985;28;20083;-61
2023/03/08 08:45:55;;;;;;;6.30;2.90;;;1.50;99.90;;;;;;5091254;28;20051;-61
2023/03/08 08:48:21;;;;;;;7.07;2.45;;;1.50;99.90;;;;;;5070891;28;20074;-61
2023/03/08 08:50:47;;;;;;;5.97;2.60;;;1.60;99.90;;;;;;5089528;28;20542;-61
2023/03/08 08:53:13;;;;;;;6.18;3.00;;;1.60;99.90;;;;;;5091465;28;20043;-61
2023/03/08 08:55:39;;;;;;;6.05;2.55;;;1.70;99.90;;;;;;5091078;28;20079;-61
2023/03/08 08:58:05;;;;;;;5.78;2.00;;;1.70;99.90;;;;;;5072606;28;20442;-61
2023/03/08 09:00:32;;;;;;;8.20;2.90;;;1.80;99.90;;;;;;5085483;28;20105;-61
2023/03/08 09:02:58;;;;;;;8.57;4.32;;;1.80;99.90;;;;;;5070591;28;20071;-62
2023/03/08 09:05:24;;;;;;;6.68;2.83;;;1.90;99.90;;;;;;5079073;28;20080;-62
2023/03/08 09:07:53;;;;;;;5.47;2.28;;;2.00;99.90;;;;;;5087062;28;20075;-61
2023/03/08 09:10:20;;;;;;;4.53;1.90;;;2.00;99.90;;;;;;5091588;28;20032;-61
2023/03/08 09:12:45;;;;;;;8.98;3.45;;;2.00;99.90;;;;;;5080218;28;20039;-61
2023/03/08 09:15:11;;;;;;;7.90;2.55;;;2.00;99.90;;;;;;5098902;28;20070;-61
2023/03/08 09:17:38;;;;;;;6.10;2.22;;;2.10;99.90;;;;;;5074255;28;20040;-61
2023/03/08 09:20:05;;;;;;;9.20;3.53;;;2.20;99.90;;;;;;5072606;28;20044;-61
2023/03/08 09:22:31;;;;;;;7.75;2.60;;;2.20;99.90;;;;;;5079690;28;20076;-61
2023/03/08 09:24:57;;;;;;;8.15;3.00;;;2.20;99.90;;;;;;5074380;28;20516;-61
2023/03/08 09:27:23;;;;;;;5.38;2.45;;;2.20;99.90;;;;;;5075349;28;20062;-61
2023/03/08 09:29:48;;;;;;;7.75;2.50;;;2.30;99.90;;;;;;5076897;28;20385;-61
2023/03/08 09:32:14;;;;;;;5.88;2.42;;;2.30;99.90;;;;;;5086798;28;20074;-61
2023/03/08 09:34:40;;;;;;;5.97;1.90;;;2.40;99.90;;;;;;5072259;28;20082;-61
2023/03/08 09:37:07;;;;;;;4.88;2.00;;;2.40;99.90;;;;;;5072904;28;20048;-61
2023/03/08 09:39:33;;;;;;;5.50;2.42;;;2.40;99.90;;;;;;5079817;28;20059;-61
2023/03/08 09:42:01;;;;;;;6.93;2.72;;;2.50;99.90;;;;;;5070782;28;20055;-61
2023/03/08 09:44:54;;;;;;;5.35;2.15;;;2.50;99.90;;;;;;5073518;28;20128;-61
2023/03/08 09:47:51;;;;;;;6.78;2.42;;;2.60;99.90;;;;;;5082842;28;20482;-61
2023/03/08 09:50:38;;;;;;;5.38;2.40;;;2.70;99.90;;;;;;5092508;28;20071;-61
2023/03/08 09:53:26;;;;;;;7.15;1.83;;;2.70;99.90;;;;;;5085557;28;20479;-61
2023/03/08 09:56:04;;;;;;;6.45;1.55;;;2.80;99.90;;;;;;5080854;28;20044;-61
2023/03/08 09:59:01;;;;;;;7.97;1.85;;;2.90;99.90;;;;;;5077320;28;20457;-61
2023/03/08 10:01:33;;;;;;;5.43;2.00;;;3.00;99.90;;;;;;5080686;28;20055;-61
2023/03/08 10:03:59;;;;;;;5.82;1.83;;;3.00;99.90;;;;;;5079613;28;20047;-60
2023/03/08 10:06:40;;;;;;;4.53;1.50;;;3.10;99.90;;;;;;5081439;28;20150;-60
2023/03/08 10:09:24;;;;;;;6.65;1.90;;;3.20;99.90;;;;;;5077523;28;20386;-61
2023/03/08 10:11:55;;;;;;;6.50;2.45;;;3.30;99.90;;;;;;5069487;28;20052;-59
2023/03/08 10:14:29;;;;;;;4.45;1.63;;;3.40;99.90;;;;;;5053084;28;20044;-59
2023/03/08 10:16:59;;;;;;;5.30;1.80;;;3.40;99.90;;;;;;5084709;28;20048;-59
2023/03/08 10:19:43;;;;;;;3.88;1.50;;;3.50;99.90;;;;;;5083874;28;20075;-59
2023/03/08 10:22:19;;;;;;;4.90;1.70;;;3.50;99.90;;;;;;5070585;28;20485;-59
2023/03/08 10:24:52;;;;;;;82.15;47.15;;;3.50;99.90;;;;;;5073744;28;20103;-59
2023/03/08 10:27:25;;;;;;;9.55;4.07;;;3.50;99.90;;;;;;5089704;28;20580;-59
2023/03/08 10:29:57;;;;;;;5.07;2.33;;;3.50;99.90;;;;;;5086142;28;20047;-59
2023/03/08 10:32:24;;;;;;;6.35;2.55;;;3.50;99.90;;;;;;5068407;28;20127;-59
2023/03/08 10:34:50;;;;;;;5.13;1.92;;;3.60;99.90;;;;;;5052995;28;20534;-59
2023/03/08 10:37:18;;;;;;;5.95;1.83;;;3.60;99.90;;;;;;5083052;28;20032;-59
2023/03/08 10:39:52;;;;;;;8.88;3.05;;;3.70;99.90;;;;;;5082792;28;20036;-59
2023/03/08 10:42:27;;;;;;;5.65;2.22;;;3.80;99.90;;;;;;5087383;28;20546;-59
2023/03/08 10:45:11;;;;;;;4.82;2.10;;;3.80;99.90;;;;;;5089125;28;20495;-59
2023/03/08 10:47:37;;;;;;;6.15;2.03;;;3.90;99.90;;;;;;5071411;28;20508;-59
2023/03/08 10:50:11;;;;;;;5.45;1.50;;;3.90;99.90;;;;;;5072056;28;20043;-59
2023/03/08 10:52:36;;;;;;;5.72;1.70;;;3.90;99.90;;;;;;5071708;28;20392;-59
2023/03/08 10:55:13;;;;;;;3.47;1.60;;;3.90;99.90;;;;;;5084143;28;20036;-59
2023/03/08 10:57:52;;;;;;;3.45;1.48;;;3.90;99.90;;;;;;5093317;28;20032;-59
2023/03/08 11:00:18;;;;;;;3.65;1.60;;;3.90;99.90;;;;;;5087356;28;20485;-59
2023/03/08 11:02:45;;;;;;;5.10;1.50;;;3.90;99.90;;;;;;5073301;28;20047;-59
2023/03/08 11:05:21;;;;;;;15.30;2.35;;;3.90;99.90;;;;;;5090505;28;20050;-60
2023/03/08 11:07:56;;;;;;;3.15;1.45;;;4.00;99.90;;;;;;5112148;28;20047;-59
2023/03/08 11:10:25;;;;;;;3.70;1.40;;;4.00;99.90;;;;;;5112005;28;20039;-59
2023/03/08 11:13:02;;;;;;;4.80;1.83;;;4.00;99.90;;;;;;5103398;28;20548;-60
2023/03/08 11:15:31;;;;;;;5.68;1.30;;;4.00;99.90;;;;;;5093875;28;20043;-60
2023/03/08 11:18:09;;;;;;;24.30;5.28;;;4.10;99.90;;;;;;5113830;28;20040;-60
2023/03/08 11:20:48;;;;;;;4.57;1.63;;;4.10;99.90;;;;;;5113231;28;20476;-60
2023/03/08 11:23:33;;;;;;;6.50;2.90;;;4.10;99.90;;;;;;5094283;28;20043;-60
2023/03/08 11:26:08;;;;;;;4.50;1.70;;;4.20;99.90;;;;;;5105889;28;20165;-60
2023/03/08 11:28:46;;;;;;;4.10;1.45;;;4.20;99.90;;;;;;5094679;28;20052;-60
2023/03/08 11:31:31;;;;;;;10.82;1.73;;;4.20;99.90;;;;;;5087480;28;20037;-60
2023/03/08 11:34:04;;;;;;;;;;;4.30;99.90;;;;;;5055320;28;20563;-60
2023/03/08 11:36:55;;;;;;;2.75;1.10;;;4.40;99.90;;;;;;5070681;28;20028;-60
2023/03/08 11:39:53;;;;;;;4.82;1.67;;;4.40;99.90;;;;;;5066831;28;20131;-60
2023/03/08 11:42:50;;;;;;;5.90;1.13;;;4.50;99.90;;;;;;5076265;28;20056;-60
2023/03/08 11:45:18;;;;;;;4.88;2.75;;;4.40;99.90;;;;;;5091031;28;20082;-60
2023/03/08 11:48:11;;;;;;;3.28;1.10;;;4.50;99.90;;;;;;5090714;28;20043;-60
2023/03/08 11:51:05;;;;;;;4.57;1.30;;;4.50;99.90;;;;;;5090653;28;20043;-60
2023/03/08 11:53:55;;;;;;;7.00;1.17;;;4.50;99.90;;;;;;5068342;28;20040;-60
2023/03/08 11:56:47;;;;;;;7.75;1.42;;;4.60;99.90;;;;;;5069881;28;20044;-60
2023/03/08 11:59:25;;;;;;;4.88;1.50;;;4.60;99.90;;;;;;5079009;28;20082;-60
2023/03/08 12:02:01;;;;;;;4.05;1.40;;;4.70;99.90;;;;;;5091261;28;20035;-60
2023/03/08 12:04:39;;;;;;;6.93;1.40;;;4.60;99.90;;;;;;5087010;28;20085;-60
2023/03/08 12:07:14;;;;;;;3.38;1.27;;;4.60;99.90;;;;;;5071182;28;20098;-60
2023/03/08 12:09:53;;;;;;;10.75;4.47;;;4.60;99.90;;;;;;5074022;28;20054;-60
2023/03/08 12:12:28;;;;;;;5.32;2.00;;;4.60;99.90;;;;;;5107869;28;20100;-59
2023/03/08 12:15:22;;;;;;;6.68;2.17;;;4.60;99.90;;;;;;5091605;28;20492;-59
2023/03/08 12:17:58;;;;;;;5.70;1.80;;;4.50;99.90;;;;;;5090208;28;20048;-60
2023/03/08 12:20:28;;;;;;;4.72;1.90;;;4.50;99.90;;;;;;5073602;28;20086;-60
2023/03/08 12:23:15;;;;;;;4.60;1.45;;;4.50;99.90;;;;;;5083838;28;20560;-59
2023/03/08 12:25:45;;;;;;;8.10;2.30;;;4.50;99.90;;;;;;5071330;28;20033;-60
2023/03/08 12:28:19;;;;;;;5.22;1.35;;;4.50;99.90;;;;;;5076967;28;20481;-60
2023/03/08 12:31:02;;;;;;;8.05;1.40;;;4.50;99.90;;;;;;5084506;28;20422;-59
2023/03/08 12:33:31;;;;;;;6.40;1.38;;;4.60;99.90;;;;;;5108323;28;20495;-59
2023/03/08 12:36:00;;;;;;;4.20;1.90;;;4.60;99.90;;;;;;5088538;28;20048;-60
2023/03/08 12:38:43;;;;;;;6.80;1.40;;;4.60;99.90;;;;;;5053725;28;20040;-60
2023/03/08 12:41:38;;;;;;;2.75;1.23;;;4.70;99.90;;;;;;5073737;28;20127;-60
2023/03/08 12:44:21;;;;;;;3.63;1.30;;;4.60;99.90;;;;;;5094963;28;20131;-60
2023/03/08 12:47:13;;;;;;;4.47;1.30;;;4.60;99.90;;;;;;5073737;28;20084;-60
2023/03/08 12:49:42;;;;;;;7.40;1.80;;;4.60;99.90;;;;;;5071420;28;20542;-60
2023/03/08 12:52:17;;;;;;;5.57;1.00;;;4.60;99.90;;;;;;5073196;28;20142;-60
2023/03/08 12:54:59;;;;;;;4.78;1.45;;;4.60;99.90;;;;;;5075836;28;20040;-60
2023/03/08 12:57:35;;;;;;;3.72;1.50;;;4.70;99.90;;;;;;5073821;28;20102;-60
2023/03/08 13:00:09;;;;;;;6.18;2.08;;;4.70;99.90;;;;;;5074576;28;20054;-60
2023/03/08 13:02:35;;;;;;;4.33;1.63;;;4.90;99.90;;;;;;5074226;28;20090;-60
2023/03/08 13:05:29;;;;;;;7.35;1.33;;;4.90;99.90;;;;;;5074099;28;20041;-60